createdAt,value
2023-03-11T00:02:35.101Z,98234.91
2023-03-11T00:05:40.214Z,98242.84
2023-03-11T00:08:42.401Z,98252.28
2023-03-11T00:11:44.080Z,98250.56
2023-03-11T00:14:45.772Z,98248.75
2023-03-11T00:17:48.570Z,98253.13
2023-03-11T00:20:50.217Z,98247.91
2023-03-11T00:23:51.978Z,98247.03
2023-03-11T00:26:53.769Z,98245.25
2023-03-11T00:29:55.410Z,98252.16
2023-03-11T00:32:58.516Z,98251.25
2023-03-11T00:36:00.210Z,98257.34
2023-03-11T00:39:06.691Z,98269.44
2023-03-11T00:42:08.406Z,98272.91
2023-03-11T00:45:10.524Z,98270.28
2023-03-11T00:48:13.916Z,98268.53
2023-03-11T00:51:16.362Z,98269.34
2023-03-11T00:54:18.141Z,98270.16
2023-03-11T00:57:19.772Z,98271.87
2023-03-11T01:00:23.287Z,98273.56
2023-03-11T01:03:24.950Z,98274.44
2023-03-11T01:06:32.690Z,98258.06
2023-03-11T01:09:40.992Z,98258.91
2023-03-11T01:12:43.441Z,98258.94
2023-03-11T01:15:45.166Z,98246.81
2023-03-11T01:18:47.265Z,98242.44
2023-03-11T01:21:48.907Z,98248.44
2023-03-11T01:24:50.684Z,98244.12
2023-03-11T01:27:52.491Z,98232.84
2023-03-11T01:30:54.157Z,98234.56
2023-03-11T01:33:55.815Z,98228.47
2023-03-11T01:36:57.418Z,98232.72
2023-03-11T01:39:59.042Z,98241.34
2023-03-11T01:43:01.877Z,98233.47
2023-03-11T01:46:09.622Z,98243.81
2023-03-11T01:49:13.102Z,98230.00
2023-03-11T01:52:14.775Z,98228.19
2023-03-11T01:55:18.758Z,98231.63
2023-03-11T01:58:34.311Z,98221.22
2023-03-11T02:01:43.553Z,98229.03
2023-03-11T02:04:46.540Z,98222.94
2023-03-11T02:07:50.820Z,98222.94
2023-03-11T02:10:54.233Z,98227.94
2023-03-11T02:14:00.442Z,98220.13
2023-03-11T02:17:02.182Z,98215.72
2023-03-11T02:20:06.744Z,98219.19
2023-03-11T02:23:08.794Z,98215.91
2023-03-11T02:26:30.427Z,98219.59
2023-03-11T02:29:33.334Z,98223.91
2023-03-11T02:32:35.418Z,98211.00
2023-03-11T02:35:37.244Z,98215.19
2023-03-11T02:38:38.915Z,98210.81
2023-03-11T02:41:45.947Z,98212.56
2023-03-11T02:45:07.272Z,98222.12
2023-03-11T02:48:11.851Z,98227.19
2023-03-11T02:51:13.801Z,98240.22
2023-03-11T02:54:15.577Z,98248.13
2023-03-11T02:57:17.241Z,98246.34
2023-03-11T03:00:19.312Z,98267.97
2023-03-11T03:03:20.979Z,98252.28
2023-03-11T03:06:22.883Z,98261.69
2023-03-11T03:09:24.571Z,98254.63
2023-03-11T03:12:26.255Z,98257.19
2023-03-11T03:15:27.945Z,98258.72
2023-03-11T03:18:29.791Z,98261.31
2023-03-11T03:21:31.442Z,98259.59
2023-03-11T03:24:33.133Z,98283.66
2023-03-11T03:27:34.933Z,98279.53
2023-03-11T03:30:36.604Z,98282.19
2023-03-11T03:33:38.622Z,98274.44
2023-03-11T03:36:40.385Z,98278.75
2023-03-11T03:39:42.047Z,98278.63
2023-03-11T03:42:43.671Z,98286.37
2023-03-11T03:45:45.426Z,98288.09
2023-03-11T03:48:47.409Z,98294.25
2023-03-11T03:51:49.102Z,98285.09
2023-03-11T03:54:50.769Z,98275.59
2023-03-11T03:57:52.521Z,98279.13
2023-03-11T04:00:58.791Z,98285.09
2023-03-11T04:04:00.454Z,98280.91
2023-03-11T04:07:05.666Z,98290.50
2023-03-11T04:10:07.797Z,98290.66
2023-03-11T04:13:09.485Z,98304.44
2023-03-11T04:16:17.273Z,98298.31
2023-03-11T04:19:18.991Z,98297.53
2023-03-11T04:22:20.660Z,98308.00
2023-03-11T04:25:22.315Z,98301.94
2023-03-11T04:28:23.971Z,98311.50
2023-03-11T04:31:25.674Z,98312.28
2023-03-11T04:34:27.332Z,98313.22
2023-03-11T04:37:29.560Z,98314.94
2023-03-11T04:40:31.313Z,98321.81
2023-03-11T04:43:34.050Z,98310.63
2023-03-11T04:46:35.883Z,98311.50
2023-03-11T04:49:37.787Z,98321.78
2023-03-11T04:52:39.413Z,98322.72
2023-03-11T04:55:41.573Z,98331.37
2023-03-11T04:58:43.205Z,98327.94
2023-03-11T05:01:44.870Z,98336.62
2023-03-11T05:04:46.718Z,98357.31
2023-03-11T05:07:49.248Z,98364.31
2023-03-11T05:10:53.136Z,98366.75
2023-03-11T05:13:54.806Z,98355.34
2023-03-11T05:16:56.622Z,98361.38
2023-03-11T05:19:58.247Z,98383.72
2023-03-11T05:22:59.899Z,98372.34
2023-03-11T05:26:01.566Z,98368.06
2023-03-11T05:29:03.257Z,98368.03
2023-03-11T05:32:05.428Z,98382.63
2023-03-11T05:35:07.838Z,98386.06
2023-03-11T05:38:09.471Z,98390.28
2023-03-11T05:41:11.128Z,98388.47
2023-03-11T05:44:12.755Z,98387.56
2023-03-11T05:47:14.425Z,98390.13
2023-03-11T05:50:16.071Z,98408.22
2023-03-11T05:53:17.837Z,98401.37
2023-03-11T05:56:22.348Z,98405.56
2023-03-11T05:59:24.096Z,98409.94
2023-03-11T06:02:25.885Z,98404.75
2023-03-11T06:05:27.643Z,98387.47
2023-03-11T06:08:30.819Z,98403.84
2023-03-11T06:11:32.596Z,98406.31
2023-03-11T06:14:34.475Z,98403.59
2023-03-11T06:17:36.179Z,98405.16
2023-03-11T06:20:38.022Z,98412.69
2023-03-11T06:23:39.736Z,98424.09
2023-03-11T06:26:41.485Z,98432.63
2023-03-11T06:29:43.135Z,98427.28
2023-03-11T06:32:46.528Z,98458.28
2023-03-11T06:35:59.764Z,98441.75
2023-03-11T06:39:01.459Z,98479.59
2023-03-11T06:42:03.364Z,98469.84
2023-03-11T06:45:05.437Z,98498.19
2023-03-11T06:48:07.079Z,98496.28
2023-03-11T06:51:10.379Z,98512.75
2023-03-11T06:54:12.082Z,98497.94
2023-03-11T06:57:13.741Z,98517.66
2023-03-11T07:00:16.460Z,98533.22
2023-03-11T07:03:18.216Z,98549.88
2023-03-11T07:06:23.404Z,98538.44
2023-03-11T07:09:25.957Z,98547.81
2023-03-11T07:12:27.625Z,98561.47
2023-03-11T07:15:29.435Z,98559.69
2023-03-11T07:18:31.546Z,98562.56
2023-03-11T07:21:33.262Z,98569.78
2023-03-11T07:24:34.930Z,98561.13
2023-03-11T07:27:36.609Z,98573.66
2023-03-11T07:30:39.399Z,98590.19
2023-03-11T07:33:41.101Z,98589.91
2023-03-11T07:36:42.967Z,98586.56
2023-03-11T07:39:44.681Z,98600.31
2023-03-11T07:42:46.324Z,98605.38
2023-03-11T07:45:48.060Z,98599.59
2023-03-11T07:48:51.557Z,98608.94
2023-03-11T07:51:53.186Z,98610.34
2023-03-11T07:54:55.079Z,98623.88
2023-03-11T07:57:56.892Z,98622.22
2023-03-11T08:01:10.401Z,98608.50
2023-03-11T08:04:14.326Z,98620.56
2023-03-11T08:07:16.332Z,98615.28
2023-03-11T08:10:18.093Z,98630.25
2023-03-11T08:13:20.563Z,98627.75
2023-03-11T08:16:22.732Z,98640.69
2023-03-11T08:19:24.971Z,98629.87
2023-03-11T08:22:26.653Z,98636.56
2023-03-11T08:25:28.326Z,98633.25
2023-03-11T08:28:30.005Z,98638.56
2023-03-11T08:31:35.037Z,98637.25
2023-03-11T08:34:39.520Z,98651.19
2023-03-11T08:37:41.343Z,98652.84
2023-03-11T08:40:43.036Z,98651.03
2023-03-11T08:43:44.888Z,98653.03
2023-03-11T08:46:46.754Z,98649.16
2023-03-11T08:49:48.554Z,98659.22
2023-03-11T08:52:50.264Z,98667.87
2023-03-11T08:55:53.097Z,98662.50
2023-03-11T08:58:54.759Z,98660.28
2023-03-11T09:01:56.849Z,98663.03
2023-03-11T09:04:58.608Z,98656.31
2023-03-11T09:08:00.375Z,98649.00
2023-03-11T09:11:02.263Z,98641.28
2023-03-11T09:14:04.831Z,98645.84
2023-03-11T09:17:07.210Z,98650.69
2023-03-11T09:20:09.500Z,98660.22
2023-03-11T09:23:14.310Z,98658.16
2023-03-11T09:26:16.139Z,98645.31
2023-03-11T09:29:17.793Z,98669.03
2023-03-11T09:32:19.482Z,98651.44
2023-03-11T09:35:21.156Z,98669.25
2023-03-11T09:38:22.844Z,98664.81
2023-03-11T09:41:57.101Z,98677.91
2023-03-11T09:45:03.802Z,98683.41
2023-03-11T09:48:31.774Z,98672.78
2023-03-11T09:51:38.616Z,98687.94
2023-03-11T09:54:45.280Z,98670.13
2023-03-11T09:57:48.365Z,98662.38
2023-03-11T10:00:52.141Z,98640.59
2023-03-11T10:03:57.908Z,98635.53
2023-03-11T10:07:02.281Z,98646.44
2023-03-11T10:10:04.291Z,98651.13
2023-03-11T10:13:55.320Z,98667.06
2023-03-11T10:17:01.134Z,98655.22
2023-03-11T10:20:24.349Z,98651.31
2023-03-11T10:23:51.550Z,98629.25
2023-03-11T10:27:00.173Z,98644.06
2023-03-11T10:30:23.458Z,98643.75
2023-03-11T10:33:35.649Z,98664.28
2023-03-11T10:36:51.438Z,98649.06
2023-03-11T10:39:53.504Z,98680.44
2023-03-11T10:42:59.559Z,98676.41
2023-03-11T10:46:07.630Z,98682.56
2023-03-11T10:49:15.843Z,98682.44
2023-03-11T10:52:17.585Z,98689.91
2023-03-11T10:55:20.020Z,98709.72
2023-03-11T10:58:24.264Z,98715.94
2023-03-11T11:01:28.924Z,98727.34
2023-03-11T11:04:41.150Z,98729.88
2023-03-11T11:07:44.094Z,98739.09
2023-03-11T11:10:55.172Z,98760.50
2023-03-11T11:13:58.983Z,98747.66
2023-03-11T11:17:00.830Z,98742.41
2023-03-11T11:20:13.224Z,98745.91
2023-03-11T11:23:26.959Z,98746.16
2023-03-11T11:26:28.603Z,98752.53
2023-03-11T11:29:30.324Z,98752.91
2023-03-11T11:32:32.041Z,98755.88
2023-03-11T11:35:34.393Z,98759.19
2023-03-11T11:38:36.090Z,98768.19
2023-03-11T11:41:38.135Z,98765.16
2023-03-11T11:44:42.612Z,98763.25
2023-03-11T11:47:48.616Z,98769.31
2023-03-11T11:50:58.973Z,98763.06
2023-03-11T11:54:24.333Z,98750.81
2023-03-11T11:57:26.312Z,98747.78
2023-03-11T12:00:44.008Z,98735.69
2023-03-11T12:04:20.180Z,98734.22
2023-03-11T12:07:37.563Z,98721.37
2023-03-11T12:11:08.458Z,98727.97
2023-03-11T12:14:26.877Z,98722.94
2023-03-11T12:17:30.580Z,98737.50
2023-03-11T12:20:42.559Z,98746.91
2023-03-11T12:24:00.511Z,98750.72
2023-03-11T12:27:23.124Z,98748.12
2023-03-11T12:30:33.063Z,98755.94
2023-03-11T12:33:39.777Z,98763.00
2023-03-11T12:36:44.011Z,98769.50
2023-03-11T12:39:45.825Z,98777.00
2023-03-11T12:42:47.478Z,98782.91
2023-03-11T12:45:55.749Z,98799.66
2023-03-11T12:49:14.185Z,98796.66
2023-03-11T12:52:22.996Z,98788.16
2023-03-11T12:55:30.180Z,98793.97
2023-03-11T12:58:43.508Z,98791.06
2023-03-11T13:01:58.172Z,98776.19
2023-03-11T13:05:14.454Z,98787.22
2023-03-11T13:08:16.922Z,98807.50
2023-03-11T13:11:33.939Z,98795.38
2023-03-11T13:14:36.177Z,98802.03
2023-03-11T13:17:37.948Z,98795.78
2023-03-11T13:20:41.526Z,98797.66
2023-03-11T13:23:43.355Z,98803.69
2023-03-11T13:27:11.007Z,98811.16
2023-03-11T13:30:22.391Z,98820.53
2023-03-11T13:33:46.465Z,98818.56
2023-03-11T13:37:00.453Z,98824.47
2023-03-11T13:40:31.998Z,98813.34
2023-03-11T13:43:35.405Z,98811.13
2023-03-11T13:46:40.383Z,98822.53
2023-03-11T13:50:14.713Z,98823.38
2023-03-11T13:53:40.056Z,98842.50
2023-03-11T13:56:49.540Z,98844.03
2023-03-11T13:59:56.214Z,98843.91
2023-03-11T14:03:02.257Z,98851.59
2023-03-11T14:06:09.013Z,98868.31
2023-03-11T14:09:19.794Z,98878.03
2023-03-11T14:12:21.561Z,98897.09
2023-03-11T14:15:26.888Z,98906.75
2023-03-11T14:18:35.845Z,98915.25
2023-03-11T14:21:42.938Z,98925.69
2023-03-11T14:24:48.367Z,98930.84
2023-03-11T14:27:57.021Z,98934.94
2023-03-11T14:31:01.249Z,98950.69
2023-03-11T14:34:18.325Z,98948.50
2023-03-11T14:37:38.154Z,98958.19
2023-03-11T14:40:42.329Z,98942.28
2023-03-11T14:43:52.779Z,98944.13
2023-03-11T14:47:05.898Z,98942.72
2023-03-11T14:50:19.550Z,98934.84
2023-03-11T14:53:43.230Z,98941.41
2023-03-11T14:56:51.798Z,98961.53
2023-03-11T14:59:55.854Z,98973.41
2023-03-11T15:03:31.708Z,98971.87
2023-03-11T15:06:36.038Z,98996.25
2023-03-11T15:09:40.692Z,99016.47
2023-03-11T15:12:45.662Z,99010.34
2023-03-11T15:15:59.865Z,99024.59
2023-03-11T15:19:24.697Z,99023.41
2023-03-11T15:22:32.995Z,99008.25
2023-03-11T15:25:39.052Z,99008.63
2023-03-11T15:28:41.250Z,99008.44
2023-03-11T15:31:46.961Z,98997.97
2023-03-11T15:35:00.227Z,99004.69
2023-03-11T15:38:13.926Z,99001.44
2023-03-11T15:41:15.860Z,99001.72
2023-03-11T15:44:50.008Z,99000.50
2023-03-11T15:47:51.863Z,99009.78
2023-03-11T15:50:56.865Z,99037.91
2023-03-11T15:53:58.821Z,99042.16
2023-03-11T15:57:01.470Z,99049.75
2023-03-11T16:00:05.469Z,99069.97
2023-03-11T16:03:07.829Z,99083.62
2023-03-11T16:06:09.736Z,99090.16
2023-03-11T16:09:12.909Z,99107.16
2023-03-11T16:12:18.630Z,99109.56
2023-03-11T16:15:30.703Z,99125.78
2023-03-11T16:18:33.839Z,99150.50
2023-03-11T16:21:43.390Z,99158.25
2023-03-11T16:24:48.314Z,99165.78
2023-03-11T16:27:52.057Z,99168.78
2023-03-11T16:30:53.968Z,99172.03
2023-03-11T16:33:58.229Z,99158.62
2023-03-11T16:37:00.319Z,99179.00
2023-03-11T16:40:02.891Z,99180.69
2023-03-11T16:43:10.848Z,99175.19
2023-03-11T16:46:13.245Z,99177.66
2023-03-11T16:49:15.485Z,99168.75
2023-03-11T16:52:20.997Z,99162.59
2023-03-11T16:55:27.294Z,99159.78
2023-03-11T16:58:29.759Z,99162.16
2023-03-11T17:01:32.176Z,99175.84
2023-03-11T17:04:34.135Z,99198.63
2023-03-11T17:07:39.429Z,99213.34
2023-03-11T17:10:44.296Z,99231.09
2023-03-11T17:13:46.607Z,99248.19
2023-03-11T17:16:49.679Z,99256.00
2023-03-11T17:19:51.571Z,99262.66
2023-03-11T17:22:53.925Z,99270.53
2023-03-11T17:25:56.018Z,99267.81
2023-03-11T17:28:58.115Z,99254.03
2023-03-11T17:32:01.421Z,99248.78
2023-03-11T17:35:04.146Z,99240.03
2023-03-11T17:38:06.376Z,99225.66
2023-03-11T17:41:09.776Z,99226.81
2023-03-11T17:44:13.768Z,99228.47
2023-03-11T17:47:21.865Z,99234.94
2023-03-11T17:50:26.682Z,99247.03
2023-03-11T17:53:28.485Z,99256.44
2023-03-11T17:56:31.084Z,99268.50
2023-03-11T17:59:33.820Z,99280.25
2023-03-11T18:02:54.613Z,99293.13
2023-03-11T18:06:08.600Z,99298.41
2023-03-11T18:09:11.228Z,99299.91
2023-03-11T18:12:13.401Z,99296.38
2023-03-11T18:15:20.764Z,99306.69
2023-03-11T18:18:23.222Z,99303.94
2023-03-11T18:21:31.349Z,99313.34
2023-03-11T18:24:33.721Z,99305.75
2023-03-11T18:27:38.349Z,99328.81
2023-03-11T18:30:40.956Z,99321.09
2023-03-11T18:33:48.577Z,99335.41
2023-03-11T18:36:50.539Z,99330.91
2023-03-11T18:39:53.731Z,99333.56
2023-03-11T18:42:56.226Z,99342.66
2023-03-11T18:46:01.527Z,99350.59
2023-03-11T18:49:05.637Z,99363.47
2023-03-11T18:52:07.651Z,99363.50
2023-03-11T18:55:10.048Z,99377.94
2023-03-11T18:58:15.196Z,99380.47
2023-03-11T19:01:21.873Z,99388.91
2023-03-11T19:04:24.574Z,99382.03
2023-03-11T19:07:29.849Z,99379.19
2023-03-11T19:10:33.644Z,99397.63
2023-03-11T19:13:46.559Z,99389.63
2023-03-11T19:16:51.006Z,99405.13
2023-03-11T19:19:53.591Z,99418.75
2023-03-11T19:22:55.793Z,99438.25
2023-03-11T19:26:03.675Z,99438.25
2023-03-11T19:29:06.141Z,99452.75
2023-03-11T19:32:08.252Z,99444.09
2023-03-11T19:35:14.974Z,99435.53
2023-03-11T19:38:17.197Z,99437.97
2023-03-11T19:41:20.799Z,99460.25
2023-03-11T19:44:23.607Z,99469.75
2023-03-11T19:47:26.574Z,99484.13
2023-03-11T19:50:29.228Z,99480.72
2023-03-11T19:53:31.898Z,99494.09
2023-03-11T19:56:34.608Z,99498.72
2023-03-11T19:59:37.214Z,99492.56
2023-03-11T20:02:39.793Z,99492.22
2023-03-11T20:05:47.460Z,99483.66
2023-03-11T20:08:50.556Z,99480.56
2023-03-11T20:11:52.428Z,99480.88
2023-03-11T20:14:54.597Z,99504.31
2023-03-11T20:17:57.239Z,99527.03
2023-03-11T20:21:03.560Z,99530.09
2023-03-11T20:24:11.416Z,99533.97
2023-03-11T20:27:14.342Z,99526.19
2023-03-11T20:30:20.178Z,99521.59
2023-03-11T20:33:22.666Z,99509.25
2023-03-11T20:36:28.036Z,99521.94
2023-03-11T20:39:30.676Z,99516.50
2023-03-11T20:42:33.421Z,99525.84
2023-03-11T20:45:37.613Z,99538.59
2023-03-11T20:48:42.627Z,99538.84
2023-03-11T20:51:48.434Z,99542.06
2023-03-11T20:54:51.361Z,99541.81
2023-03-11T20:57:54.595Z,99540.91
2023-03-11T21:00:57.310Z,99532.16
2023-03-11T21:04:02.488Z,99538.66
2023-03-11T21:07:05.681Z,99540.19
2023-03-11T21:10:11.325Z,99558.19
2023-03-11T21:13:13.505Z,99559.72
2023-03-11T21:16:17.242Z,99566.22
2023-03-11T21:19:22.569Z,99566.31
2023-03-11T21:22:25.684Z,99566.94
2023-03-11T21:25:28.723Z,99566.78
2023-03-11T21:28:31.329Z,99571.66
2023-03-11T21:31:34.197Z,99573.50
2023-03-11T21:34:36.136Z,99584.34
2023-03-11T21:37:39.685Z,99594.47
2023-03-11T21:40:41.628Z,99584.66
2023-03-11T21:43:44.144Z,99599.50
2023-03-11T21:46:46.212Z,99603.53
2023-03-11T21:49:48.154Z,99590.59
2023-03-11T21:52:49.874Z,99598.41
2023-03-11T21:55:53.068Z,99601.41
2023-03-11T21:58:54.892Z,99605.16
2023-03-11T22:02:01.364Z,99612.87
2023-03-11T22:05:03.326Z,99630.75
2023-03-11T22:08:05.240Z,99630.94
2023-03-11T22:11:09.515Z,99635.66
2023-03-11T22:14:11.507Z,99643.09
2023-03-11T22:17:13.330Z,99645.56
2023-03-11T22:20:15.986Z,99643.72
2023-03-11T22:23:17.676Z,99640.25
2023-03-11T22:26:19.400Z,99644.09
2023-03-11T22:29:21.080Z,99648.56
2023-03-11T22:32:22.863Z,99646.47
2023-03-11T22:35:24.615Z,99651.16
2023-03-11T22:38:26.243Z,99643.19
2023-03-11T22:41:28.012Z,99646.19
2023-03-11T22:44:29.684Z,99658.25
2023-03-11T22:47:31.726Z,99660.47
2023-03-11T22:50:33.390Z,99667.16
2023-03-11T22:53:35.106Z,99676.72
2023-03-11T22:56:36.809Z,99684.72
2023-03-11T22:59:38.536Z,99694.81
2023-03-11T23:02:40.186Z,99705.25
2023-03-11T23:05:42.377Z,99706.25
2023-03-11T23:08:44.639Z,99707.94
2023-03-11T23:11:46.315Z,99716.59
2023-03-11T23:14:47.959Z,99722.41
2023-03-11T23:17:49.746Z,99730.28
2023-03-11T23:20:51.977Z,99735.38
2023-03-11T23:23:54.546Z,99732.41
2023-03-11T23:26:56.280Z,99736.81
2023-03-11T23:29:58.370Z,99746.34
2023-03-11T23:33:02.904Z,99747.66
2023-03-11T23:36:08.489Z,99744.16
2023-03-11T23:39:10.144Z,99749.19
2023-03-11T23:42:24.551Z,99754.53
2023-03-11T23:45:27.481Z,99762.41
2023-03-11T23:48:29.269Z,99764.97
2023-03-11T23:51:31.012Z,99771.19
2023-03-11T23:54:32.685Z,99774.66
2023-03-11T23:57:37.859Z,99780.66
